sensor_id;sensor_type;location;lat;lon;timestamp;temperature;humidity
7598;DHT22;3840;59.32098800;18.06423600;2023-08-07T00:00:22;19.10;99.90
7598;DHT22;3840;59.32098800;18.06423600;2023-08-07T00:02:48;19.20;99.90
7598;DHT22;3840;59.32098800;18.06423600;2023-08-07T00:05:14;19.40;99.90
7598;DHT22;3840;59.32098800;18.06423600;2023-08-07T00:07:42;19.40;99.90
7598;DHT22;3840;59.32098800;18.06423600;2023-08-07T00:10:08;19.40;99.90
7598;DHT22;3840;59.32098800;18.06423600;2023-08-07T00:12:34;19.50;99.90
7598;DHT22;3840;59.32098800;18.06423600;2023-08-07T00:15:01;19.50;99.90
7598;DHT22;3840;59.32098800;18.06423600;2023-08-07T00:17:26;19.50;99.90
7598;DHT22;3840;59.32098800;18.06423600;2023-08-07T00:19:52;19.50;99.90
7598;DHT22;3840;59.32098800;18.06423600;2023-08-07T00:22:18;19.60;99.90
7598;DHT22;3840;59.32098800;18.06423600;2023-08-07T00:24:44;19.50;99.90
7598;DHT22;3840;59.32098800;18.06423600;2023-08-07T00:27:10;19.50;99.90
7598;DHT22;3840;59.32098800;18.06423600;2023-08-07T00:29:37;19.50;99.90
7598;DHT22;3840;59.32098800;18.06423600;2023-08-07T00:32:03;19.50;99.90
7598;DHT22;3840;59.32098800;18.06423600;2023-08-07T00:34:29;19.50;99.90
7598;DHT22;3840;59.32098800;18.06423600;2023-08-07T00:36:55;19.50;99.90
7598;DHT22;3840;59.32098800;18.06423600;2023-08-07T00:39:20;19.50;99.90
7598;DHT22;3840;59.32098800;18.06423600;2023-08-07T00:41:46;19.50;99.90
7598;DHT22;3840;59.32098800;18.06423600;2023-08-07T00:44:12;19.50;99.90
7598;DHT22;3840;59.32098800;18.06423600;2023-08-07T00:46:38;19.50;99.90
7598;DHT22;3840;59.32098800;18.06423600;2023-08-07T00:49:08;19.50;99.90
7598;DHT22;3840;59.32098800;18.06423600;2023-08-07T00:51:35;19.50;99.90
7598;DHT22;3840;59.32098800;18.06423600;2023-08-07T00:54:03;19.50;99.90
7598;DHT22;3840;59.32098800;18.06423600;2023-08-07T00:56:32;19.50;99.90
7598;DHT22;3840;59.32098800;18.06423600;2023-08-07T00:58:58;19.50;99.90
7598;DHT22;3840;59.32098800;18.06423600;2023-08-07T01:01:25;19.50;99.90
7598;DHT22;3840;59.32098800;18.06423600;2023-08-07T01:03:51;19.50;99.90
7598;DHT22;3840;59.32098800;18.06423600;2023-08-07T01:06:17;19.50;99.90
7598;DHT22;3840;59.32098800;18.06423600;2023-08-07T01:08:43;19.50;99.90
7598;DHT22;3840;59.32098800;18.06423600;2023-08-07T01:16:35;19.50;99.90
7598;DHT22;3840;59.32098800;18.06423600;2023-08-07T01:19:03;19.50;99.90
7598;DHT22;3840;59.32098800;18.06423600;2023-08-07T01:21:32;19.40;99.90
7598;DHT22;3840;59.32098800;18.06423600;2023-08-07T01:23:59;19.40;99.90
7598;DHT22;3840;59.32098800;18.06423600;2023-08-07T01:26:25;19.40;99.90
7598;DHT22;3840;59.32098800;18.06423600;2023-08-07T01:29:25;19.40;99.90
7598;DHT22;3840;59.32098800;18.06423600;2023-08-07T01:31:55;19.40;99.90
7598;DHT22;3840;59.32098800;18.06423600;2023-08-07T01:34:24;19.40;99.90
7598;DHT22;3840;59.32098800;18.06423600;2023-08-07T01:36:51;19.40;99.90
7598;DHT22;3840;59.32098800;18.06423600;2023-08-07T01:39:18;19.40;99.90
7598;DHT22;3840;59.32098800;18.06423600;2023-08-07T01:41:45;19.40;99.90
7598;DHT22;3840;59.32098800;18.06423600;2023-08-07T01:44:12;19.40;99.90
7598;DHT22;3840;59.32098800;18.06423600;2023-08-07T01:46:38;19.40;99.90
7598;DHT22;3840;59.32098800;18.06423600;2023-08-07T01:49:04;19.30;99.90
7598;DHT22;3840;59.32098800;18.06423600;2023-08-07T01:51:29;19.40;99.90
7598;DHT22;3840;59.32098800;18.06423600;2023-08-07T01:53:55;19.40;99.90
7598;DHT22;3840;59.32098800;18.06423600;2023-08-07T01:56:21;19.30;99.90
7598;DHT22;3840;59.32098800;18.06423600;2023-08-07T01:58:46;19.30;99.90
7598;DHT22;3840;59.32098800;18.06423600;2023-08-07T02:01:12;19.30;99.90
7598;DHT22;3840;59.32098800;18.06423600;2023-08-07T02:03:38;19.30;99.90
7598;DHT22;3840;59.32098800;18.06423600;2023-08-07T02:06:05;19.30;99.90
7598;DHT22;3840;59.32098800;18.06423600;2023-08-07T02:08:32;19.20;99.90
7598;DHT22;3840;59.32098800;18.06423600;2023-08-07T02:10:58;19.20;99.90
7598;DHT22;3840;59.32098800;18.06423600;2023-08-07T02:13:27;19.20;99.90
7598;DHT22;3840;59.32098800;18.06423600;2023-08-07T02:15:53;19.20;99.90
7598;DHT22;3840;59.32098800;18.06423600;2023-08-07T02:18:20;19.20;99.90
7598;DHT22;3840;59.32098800;18.06423600;2023-08-07T02:20:46;19.20;99.90
7598;DHT22;3840;59.32098800;18.06423600;2023-08-07T02:23:13;19.20;99.90
7598;DHT22;3840;59.32098800;18.06423600;2023-08-07T02:25:40;19.20;99.90
7598;DHT22;3840;59.32098800;18.06423600;2023-08-07T02:28:06;19.20;99.90
7598;DHT22;3840;59.32098800;18.06423600;2023-08-07T02:30:31;19.20;99.90
7598;DHT22;3840;59.32098800;18.06423600;2023-08-07T02:32:57;19.20;99.90
7598;DHT22;3840;59.32098800;18.06423600;2023-08-07T02:35:23;19.20;99.90
7598;DHT22;3840;59.32098800;18.06423600;2023-08-07T02:37:49;19.20;99.90
7598;DHT22;3840;59.32098800;18.06423600;2023-08-07T02:40:15;19.20;99.90
7598;DHT22;3840;59.32098800;18.06423600;2023-08-07T02:42:43;19.20;99.90
7598;DHT22;3840;59.32098800;18.06423600;2023-08-07T02:45:08;19.20;99.90
7598;DHT22;3840;59.32098800;18.06423600;2023-08-07T02:47:34;19.10;99.90
7598;DHT22;3840;59.32098800;18.06423600;2023-08-07T02:50:00;19.20;99.90
7598;DHT22;3840;59.32098800;18.06423600;2023-08-07T02:52:26;19.20;99.90
7598;DHT22;3840;59.32098800;18.06423600;2023-08-07T02:54:51;19.10;99.90
7598;DHT22;3840;59.32098800;18.06423600;2023-08-07T02:57:17;19.10;99.90
7598;DHT22;3840;59.32098800;18.06423600;2023-08-07T02:59:43;19.10;99.90
7598;DHT22;3840;59.32098800;18.06423600;2023-08-07T03:02:08;19.10;99.90
7598;DHT22;3840;59.32098800;18.06423600;2023-08-07T03:04:34;19.10;99.90
7598;DHT22;3840;59.32098800;18.06423600;2023-08-07T03:07:00;19.10;99.90
7598;DHT22;3840;59.32098800;18.06423600;2023-08-07T03:09:26;19.10;99.90
7598;DHT22;3840;59.32098800;18.06423600;2023-08-07T03:11:52;19.10;99.90
7598;DHT22;3840;59.32098800;18.06423600;2023-08-07T03:14:17;19.00;99.90
7598;DHT22;3840;59.32098800;18.06423600;2023-08-07T03:16:45;19.00;99.90
7598;DHT22;3840;59.32098800;18.06423600;2023-08-07T03:19:10;19.00;99.90
7598;DHT22;3840;59.32098800;18.06423600;2023-08-07T03:21:36;19.00;99.90
7598;DHT22;3840;59.32098800;18.06423600;2023-08-07T03:24:02;19.00;99.90
7598;DHT22;3840;59.32098800;18.06423600;2023-08-07T03:26:28;19.00;99.90
7598;DHT22;3840;59.32098800;18.06423600;2023-08-07T03:28:54;19.00;99.90
7598;DHT22;3840;59.32098800;18.06423600;2023-08-07T03:31:19;19.10;99.90
7598;DHT22;3840;59.32098800;18.06423600;2023-08-07T03:33:45;19.10;99.90
7598;DHT22;3840;59.32098800;18.06423600;2023-08-07T03:36:11;19.10;99.90
7598;DHT22;3840;59.32098800;18.06423600;2023-08-07T03:38:37;19.10;99.90
7598;DHT22;3840;59.32098800;18.06423600;2023-08-07T03:41:03;19.10;99.90
7598;DHT22;3840;59.32098800;18.06423600;2023-08-07T03:43:29;19.20;99.90
7598;DHT22;3840;59.32098800;18.06423600;2023-08-07T03:45:57;19.30;99.90
7598;DHT22;3840;59.32098800;18.06423600;2023-08-07T03:48:23;19.30;99.90
7598;DHT22;3840;59.32098800;18.06423600;2023-08-07T03:50:48;19.40;99.90
7598;DHT22;3840;59.32098800;18.06423600;2023-08-07T03:53:14;19.50;99.90
7598;DHT22;3840;59.32098800;18.06423600;2023-08-07T03:55:40;19.50;99.90
7598;DHT22;3840;59.32098800;18.06423600;2023-08-07T03:58:08;19.50;99.90
7598;DHT22;3840;59.32098800;18.06423600;2023-08-07T04:00:34;19.50;99.90
7598;DHT22;3840;59.32098800;18.06423600;2023-08-07T04:03:00;19.60;99.90
7598;DHT22;3840;59.32098800;18.06423600;2023-08-07T04:05:26;19.50;99.90
7598;DHT22;3840;59.32098800;18.06423600;2023-08-07T04:07:52;19.60;99.90
7598;DHT22;3840;59.32098800;18.06423600;2023-08-07T04:10:18;19.70;99.90
7598;DHT22;3840;59.32098800;18.06423600;2023-08-07T04:12:44;19.80;99.90
7598;DHT22;3840;59.32098800;18.06423600;2023-08-07T04:15:09;19.80;99.90
7598;DHT22;3840;59.32098800;18.06423600;2023-08-07T04:17:35;19.70;99.90
7598;DHT22;3840;59.32098800;18.06423600;2023-08-07T04:20:02;19.80;99.90
7598;DHT22;3840;59.32098800;18.06423600;2023-08-07T04:22:29;19.70;99.90
7598;DHT22;3840;59.32098800;18.06423600;2023-08-07T04:24:54;19.70;99.90
7598;DHT22;3840;59.32098800;18.06423600;2023-08-07T04:27:20;19.70;99.90
7598;DHT22;3840;59.32098800;18.06423600;2023-08-07T04:29:46;19.60;99.90
7598;DHT22;3840;59.32098800;18.06423600;2023-08-07T04:32:11;19.60;99.90
7598;DHT22;3840;59.32098800;18.06423600;2023-08-07T04:34:37;19.60;99.90
7598;DHT22;3840;59.32098800;18.06423600;2023-08-07T04:37:04;19.50;99.90
7598;DHT22;3840;59.32098800;18.06423600;2023-08-07T04:39:31;19.50;99.90
7598;DHT22;3840;59.32098800;18.06423600;2023-08-07T04:41:57;19.50;99.90
7598;DHT22;3840;59.32098800;18.06423600;2023-08-07T04:44:23;19.50;99.90
7598;DHT22;3840;59.32098800;18.06423600;2023-08-07T04:46:49;19.50;99.90
7598;DHT22;3840;59.32098800;18.06423600;2023-08-07T04:49:14;19.50;99.90
7598;DHT22;3840;59.32098800;18.06423600;2023-08-07T04:51:40;19.40;99.90
7598;DHT22;3840;59.32098800;18.06423600;2023-08-07T04:54:06;19.30;99.90
7598;DHT22;3840;59.32098800;18.06423600;2023-08-07T04:56:32;19.30;99.90
7598;DHT22;3840;59.32098800;18.06423600;2023-08-07T04:58:57;19.30;99.90
7598;DHT22;3840;59.32098800;18.06423600;2023-08-07T05:01:26;19.30;99.90
7598;DHT22;3840;59.32098800;18.06423600;2023-08-07T05:03:51;19.30;99.90
7598;DHT22;3840;59.32098800;18.06423600;2023-08-07T05:06:17;19.30;99.90
7598;DHT22;3840;59.32098800;18.06423600;2023-08-07T05:08:44;19.40;99.90
7598;DHT22;3840;59.32098800;18.06423600;2023-08-07T05:11:10;19.40;99.90
7598;DHT22;3840;59.32098800;18.06423600;2023-08-07T05:13:36;19.40;99.90
7598;DHT22;3840;59.32098800;18.06423600;2023-08-07T05:16:01;19.40;99.90
7598;DHT22;3840;59.32098800;18.06423600;2023-08-07T05:18:27;19.40;99.90
7598;DHT22;3840;59.32098800;18.06423600;2023-08-07T05:20:53;19.40;99.90
7598;DHT22;3840;59.32098800;18.06423600;2023-08-07T05:23:19;19.40;99.90
7598;DHT22;3840;59.32098800;18.06423600;2023-08-07T05:25:45;19.40;99.90
7598;DHT22;3840;59.32098800;18.06423600;2023-08-07T05:28:12;19.40;99.90
7598;DHT22;3840;59.32098800;18.06423600;2023-08-07T05:30:38;19.50;99.90
7598;DHT22;3840;59.32098800;18.06423600;2023-08-07T05:33:04;19.60;99.90
7598;DHT22;3840;59.32098800;18.06423600;2023-08-07T05:35:31;19.80;99.90
7598;DHT22;3840;59.32098800;18.06423600;2023-08-07T05:37:57;19.90;99.90
7598;DHT22;3840;59.32098800;18.06423600;2023-08-07T05:40:23;20.00;99.90
7598;DHT22;3840;59.32098800;18.06423600;2023-08-07T05:42:49;20.20;99.90
7598;DHT22;3840;59.32098800;18.06423600;2023-08-07T05:45:15;20.20;99.90
7598;DHT22;3840;59.32098800;18.06423600;2023-08-07T05:47:40;20.20;99.90
7598;DHT22;3840;59.32098800;18.06423600;2023-08-07T05:50:06;20.20;99.90
7598;DHT22;3840;59.32098800;18.06423600;2023-08-07T05:52:32;20.20;99.90
7598;DHT22;3840;59.32098800;18.06423600;2023-08-07T05:54:58;20.30;99.90
7598;DHT22;3840;59.32098800;18.06423600;2023-08-07T05:57:24;20.20;99.90
7598;DHT22;3840;59.32098800;18.06423600;2023-08-07T05:59:49;20.20;99.90
7598;DHT22;3840;59.32098800;18.06423600;2023-08-07T06:02:15;20.10;99.90
7598;DHT22;3840;59.32098800;18.06423600;2023-08-07T06:04:41;20.10;99.90
7598;DHT22;3840;59.32098800;18.06423600;2023-08-07T06:07:06;20.10;99.90
7598;DHT22;3840;59.32098800;18.06423600;2023-08-07T06:09:32;20.10;99.90
7598;DHT22;3840;59.32098800;18.06423600;2023-08-07T06:11:58;20.30;99.90
7598;DHT22;3840;59.32098800;18.06423600;2023-08-07T06:14:24;20.40;99.90
7598;DHT22;3840;59.32098800;18.06423600;2023-08-07T06:16:51;20.30;99.90
7598;DHT22;3840;59.32098800;18.06423600;2023-08-07T06:19:17;20.40;99.90
7598;DHT22;3840;59.32098800;18.06423600;2023-08-07T06:21:43;20.40;99.90
7598;DHT22;3840;59.32098800;18.06423600;2023-08-07T06:24:09;20.50;99.90
7598;DHT22;3840;59.32098800;18.06423600;2023-08-07T06:26:34;20.70;99.90
7598;DHT22;3840;59.32098800;18.06423600;2023-08-07T06:29:00;20.90;99.90
7598;DHT22;3840;59.32098800;18.06423600;2023-08-07T06:31:26;21.00;99.90
7598;DHT22;3840;59.32098800;18.06423600;2023-08-07T06:33:52;21.20;99.90
7598;DHT22;3840;59.32098800;18.06423600;2023-08-07T06:36:18;21.30;99.90
7598;DHT22;3840;59.32098800;18.06423600;2023-08-07T06:38:44;21.40;99.90
7598;DHT22;3840;59.32098800;18.06423600;2023-08-07T06:41:09;21.40;99.90
7598;DHT22;3840;59.32098800;18.06423600;2023-08-07T06:43:35;21.50;99.90
7598;DHT22;3840;59.32098800;18.06423600;2023-08-07T06:46:01;21.40;99.90
7598;DHT22;3840;59.32098800;18.06423600;2023-08-07T06:48:27;21.40;99.90
7598;DHT22;3840;59.32098800;18.06423600;2023-08-07T06:50:53;21.40;99.90
7598;DHT22;3840;59.32098800;18.06423600;2023-08-07T06:53:19;21.40;99.90
7598;DHT22;3840;59.32098800;18.06423600;2023-08-07T06:55:45;21.60;99.90
7598;DHT22;3840;59.32098800;18.06423600;2023-08-07T06:58:11;21.90;99.90
7598;DHT22;3840;59.32098800;18.06423600;2023-08-07T07:00:37;22.00;99.90
7598;DHT22;3840;59.32098800;18.06423600;2023-08-07T07:03:04;22.00;99.90
7598;DHT22;3840;59.32098800;18.06423600;2023-08-07T07:05:30;22.10;99.90
7598;DHT22;3840;59.32098800;18.06423600;2023-08-07T07:07:58;22.20;99.90
7598;DHT22;3840;59.32098800;18.06423600;2023-08-07T07:10:25;22.20;99.90
7598;DHT22;3840;59.32098800;18.06423600;2023-08-07T07:12:51;22.30;99.90
7598;DHT22;3840;59.32098800;18.06423600;2023-08-07T07:15:17;22.30;99.90
7598;DHT22;3840;59.32098800;18.06423600;2023-08-07T07:17:43;22.30;99.90
7598;DHT22;3840;59.32098800;18.06423600;2023-08-07T07:20:09;22.30;99.90
7598;DHT22;3840;59.32098800;18.06423600;2023-08-07T07:22:35;22.40;99.90
7598;DHT22;3840;59.32098800;18.06423600;2023-08-07T07:25:01;22.50;99.90
7598;DHT22;3840;59.32098800;18.06423600;2023-08-07T07:27:27;22.50;99.90
7598;DHT22;3840;59.32098800;18.06423600;2023-08-07T07:29:53;22.50;99.90
7598;DHT22;3840;59.32098800;18.06423600;2023-08-07T07:32:18;22.50;99.90
7598;DHT22;3840;59.32098800;18.06423600;2023-08-07T07:34:45;22.60;99.90
7598;DHT22;3840;59.32098800;18.06423600;2023-08-07T07:37:10;22.50;99.90
7598;DHT22;3840;59.32098800;18.06423600;2023-08-07T07:39:36;22.40;99.90
7598;DHT22;3840;59.32098800;18.06423600;2023-08-07T07:42:02;22.40;99.90
7598;DHT22;3840;59.32098800;18.06423600;2023-08-07T07:44:30;22.50;99.90
7598;DHT22;3840;59.32098800;18.06423600;2023-08-07T07:46:55;22.40;99.90
7598;DHT22;3840;59.32098800;18.06423600;2023-08-07T07:49:21;22.40;99.90
7598;DHT22;3840;59.32098800;18.06423600;2023-08-07T07:51:47;22.40;99.90
7598;DHT22;3840;59.32098800;18.06423600;2023-08-07T07:54:14;22.30;99.90
7598;DHT22;3840;59.32098800;18.06423600;2023-08-07T07:56:39;22.30;99.90
7598;DHT22;3840;59.32098800;18.06423600;2023-08-07T07:59:05;22.30;99.90
7598;DHT22;3840;59.32098800;18.06423600;2023-08-07T08:01:31;22.50;99.90
7598;DHT22;3840;59.32098800;18.06423600;2023-08-07T08:03:58;22.70;99.90
7598;DHT22;3840;59.32098800;18.06423600;2023-08-07T08:06:23;22.80;99.90
7598;DHT22;3840;59.32098800;18.06423600;2023-08-07T08:08:49;22.90;99.90
7598;DHT22;3840;59.32098800;18.06423600;2023-08-07T08:11:15;23.00;99.90
7598;DHT22;3840;59.32098800;18.06423600;2023-08-07T08:13:41;23.00;99.90
7598;DHT22;3840;59.32098800;18.06423600;2023-08-07T08:16:07;23.10;99.90
7598;DHT22;3840;59.32098800;18.06423600;2023-08-07T08:18:33;23.00;99.90
7598;DHT22;3840;59.32098800;18.06423600;2023-08-07T08:20:59;23.00;99.90
7598;DHT22;3840;59.32098800;18.06423600;2023-08-07T08:23:25;23.10;99.90
7598;DHT22;3840;59.32098800;18.06423600;2023-08-07T08:25:50;23.20;99.90
7598;DHT22;3840;59.32098800;18.06423600;2023-08-07T08:28:17;23.30;99.90
7598;DHT22;3840;59.32098800;18.06423600;2023-08-07T08:30:43;23.30;99.90
7598;DHT22;3840;59.32098800;18.06423600;2023-08-07T08:33:09;23.10;99.90
7598;DHT22;3840;59.32098800;18.06423600;2023-08-07T08:35:38;23.10;99.90
7598;DHT22;3840;59.32098800;18.06423600;2023-08-07T08:38:06;23.00;99.90
7598;DHT22;3840;59.32098800;18.06423600;2023-08-07T08:40:32;23.00;99.90
7598;DHT22;3840;59.32098800;18.06423600;2023-08-07T08:43:00;23.10;99.90
7598;DHT22;3840;59.32098800;18.06423600;2023-08-07T08:45:27;23.10;99.90
7598;DHT22;3840;59.32098800;18.06423600;2023-08-07T08:48:01;23.10;99.90
7598;DHT22;3840;59.32098800;18.06423600;2023-08-07T08:50:28;23.10;99.90
7598;DHT22;3840;59.32098800;18.06423600;2023-08-07T08:52:56;23.00;99.90
7598;DHT22;3840;59.32098800;18.06423600;2023-08-07T08:55:23;22.90;99.90
7598;DHT22;3840;59.32098800;18.06423600;2023-08-07T08:57:49;22.90;99.90
7598;DHT22;3840;59.32098800;18.06423600;2023-08-07T09:00:16;23.00;99.90
7598;DHT22;3840;59.32098800;18.06423600;2023-08-07T09:02:49;23.00;99.90
7598;DHT22;3840;59.32098800;18.06423600;2023-08-07T09:05:17;23.00;99.90
7598;DHT22;3840;59.32098800;18.06423600;2023-08-07T09:07:43;23.00;99.90
7598;DHT22;3840;59.32098800;18.06423600;2023-08-07T09:10:12;23.10;99.90
7598;DHT22;3840;59.32098800;18.06423600;2023-08-07T09:12:40;23.10;99.90
7598;DHT22;3840;59.32098800;18.06423600;2023-08-07T09:15:08;23.10;99.90
7598;DHT22;3840;59.32098800;18.06423600;2023-08-07T09:17:39;23.10;99.90
7598;DHT22;3840;59.32098800;18.06423600;2023-08-07T09:20:07;23.30;99.90
7598;DHT22;3840;59.32098800;18.06423600;2023-08-07T09:22:36;23.30;99.90
7598;DHT22;3840;59.32098800;18.06423600;2023-08-07T09:25:02;23.40;99.90
7598;DHT22;3840;59.32098800;18.06423600;2023-08-07T09:27:31;23.60;99.90
7598;DHT22;3840;59.32098800;18.06423600;2023-08-07T09:29:58;23.70;99.90
7598;DHT22;3840;59.32098800;18.06423600;2023-08-07T09:32:23;23.80;99.90
7598;DHT22;3840;59.32098800;18.06423600;2023-08-07T09:34:50;23.80;99.90
7598;DHT22;3840;59.32098800;18.06423600;2023-08-07T09:37:19;23.80;99.90
7598;DHT22;3840;59.32098800;18.06423600;2023-08-07T09:39:46;23.80;99.90
7598;DHT22;3840;59.32098800;18.06423600;2023-08-07T09:42:16;23.70;99.90
7598;DHT22;3840;59.32098800;18.06423600;2023-08-07T09:44:43;23.70;99.90
7598;DHT22;3840;59.32098800;18.06423600;2023-08-07T09:47:17;23.60;99.90
7598;DHT22;3840;59.32098800;18.06423600;2023-08-07T09:49:45;23.40;99.90
7598;DHT22;3840;59.32098800;18.06423600;2023-08-07T09:52:12;23.50;99.90
7598;DHT22;3840;59.32098800;18.06423600;2023-08-07T09:54:41;23.60;99.90
7598;DHT22;3840;59.32098800;18.06423600;2023-08-07T09:57:07;23.70;99.90
7598;DHT22;3840;59.32098800;18.06423600;2023-08-07T09:59:34;23.90;99.90
7598;DHT22;3840;59.32098800;18.06423600;2023-08-07T10:02:03;24.00;99.90
7598;DHT22;3840;59.32098800;18.06423600;2023-08-07T10:04:30;24.10;99.90
7598;DHT22;3840;59.32098800;18.06423600;2023-08-07T10:06:57;24.10;99.90
7598;DHT22;3840;59.32098800;18.06423600;2023-08-07T10:09:23;24.20;99.90
7598;DHT22;3840;59.32098800;18.06423600;2023-08-07T10:11:50;24.20;99.90
7598;DHT22;3840;59.32098800;18.06423600;2023-08-07T10:14:17;24.30;99.90
7598;DHT22;3840;59.32098800;18.06423600;2023-08-07T10:16:45;24.20;99.90
7598;DHT22;3840;59.32098800;18.06423600;2023-08-07T10:19:12;24.30;99.90
7598;DHT22;3840;59.32098800;18.06423600;2023-08-07T10:21:39;24.40;99.90
7598;DHT22;3840;59.32098800;18.06423600;2023-08-07T10:24:06;24.40;99.90
7598;DHT22;3840;59.32098800;18.06423600;2023-08-07T10:26:34;24.20;99.90
7598;DHT22;3840;59.32098800;18.06423600;2023-08-07T10:29:02;24.00;99.90
7598;DHT22;3840;59.32098800;18.06423600;2023-08-07T10:31:30;23.90;99.90
7598;DHT22;3840;59.32098800;18.06423600;2023-08-07T10:33:58;23.80;99.90
7598;DHT22;3840;59.32098800;18.06423600;2023-08-07T10:36:23;23.70;99.90
7598;DHT22;3840;59.32098800;18.06423600;2023-08-07T10:39:11;23.80;99.90
7598;DHT22;3840;59.32098800;18.06423600;2023-08-07T10:41:48;23.80;99.90
7598;DHT22;3840;59.32098800;18.06423600;2023-08-07T10:44:22;23.80;99.90
7598;DHT22;3840;59.32098800;18.06423600;2023-08-07T10:49:44;24.10;99.90
7598;DHT22;3840;59.32098800;18.06423600;2023-08-07T10:52:12;23.90;99.90
7598;DHT22;3840;59.32098800;18.06423600;2023-08-07T10:54:48;23.80;99.90
7598;DHT22;3840;59.32098800;18.06423600;2023-08-07T10:57:16;23.80;99.90
7598;DHT22;3840;59.32098800;18.06423600;2023-08-07T11:02:26;23.60;99.90
7598;DHT22;3840;59.32098800;18.06423600;2023-08-07T11:04:53;23.70;99.90
7598;DHT22;3840;59.32098800;18.06423600;2023-08-07T11:07:26;23.70;99.90
7598;DHT22;3840;59.32098800;18.06423600;2023-08-07T11:09:56;23.90;99.90
7598;DHT22;3840;59.32098800;18.06423600;2023-08-07T11:12:29;23.70;99.90
7598;DHT22;3840;59.32098800;18.06423600;2023-08-07T11:14:55;23.70;99.90
7598;DHT22;3840;59.32098800;18.06423600;2023-08-07T11:17:28;23.70;99.90
7598;DHT22;3840;59.32098800;18.06423600;2023-08-07T11:19:55;23.70;99.90
7598;DHT22;3840;59.32098800;18.06423600;2023-08-07T11:22:21;23.70;99.90
7598;DHT22;3840;59.32098800;18.06423600;2023-08-07T11:24:47;23.80;99.90
7598;DHT22;3840;59.32098800;18.06423600;2023-08-07T11:27:13;23.70;99.90
7598;DHT22;3840;59.32098800;18.06423600;2023-08-07T11:29:39;23.70;99.90
7598;DHT22;3840;59.32098800;18.06423600;2023-08-07T11:32:06;23.60;99.90
7598;DHT22;3840;59.32098800;18.06423600;2023-08-07T11:34:33;23.50;99.90
7598;DHT22;3840;59.32098800;18.06423600;2023-08-07T11:36:59;23.50;99.90
7598;DHT22;3840;59.32098800;18.06423600;2023-08-07T11:39:26;23.40;99.90
7598;DHT22;3840;59.32098800;18.06423600;2023-08-07T11:41:52;23.20;99.90
7598;DHT22;3840;59.32098800;18.06423600;2023-08-07T11:44:18;23.20;99.90
7598;DHT22;3840;59.32098800;18.06423600;2023-08-07T11:46:44;23.20;99.90
7598;DHT22;3840;59.32098800;18.06423600;2023-08-07T11:49:10;23.10;99.90
7598;DHT22;3840;59.32098800;18.06423600;2023-08-07T11:51:40;23.00;99.90
7598;DHT22;3840;59.32098800;18.06423600;2023-08-07T11:54:06;23.10;99.90
7598;DHT22;3840;59.32098800;18.06423600;2023-08-07T11:56:33;23.10;99.90
7598;DHT22;3840;59.32098800;18.06423600;2023-08-07T11:58:59;23.10;99.90
7598;DHT22;3840;59.32098800;18.06423600;2023-08-07T12:01:26;23.30;99.90
7598;DHT22;3840;59.32098800;18.06423600;2023-08-07T12:03:57;23.20;99.90
7598;DHT22;3840;59.32098800;18.06423600;2023-08-07T12:06:34;23.40;99.90
7598;DHT22;3840;59.32098800;18.06423600;2023-08-07T12:09:09;23.50;99.90
7598;DHT22;3840;59.32098800;18.06423600;2023-08-07T12:11:38;23.50;99.90
7598;DHT22;3840;59.32098800;18.06423600;2023-08-07T12:14:04;23.60;99.90
7598;DHT22;3840;59.32098800;18.06423600;2023-08-07T12:16:34;23.70;99.90
7598;DHT22;3840;59.32098800;18.06423600;2023-08-07T12:19:01;23.80;99.90
7598;DHT22;3840;59.32098800;18.06423600;2023-08-07T12:21:27;23.80;99.90
7598;DHT22;3840;59.32098800;18.06423600;2023-08-07T12:23:57;23.90;99.90
7598;DHT22;3840;59.32098800;18.06423600;2023-08-07T12:26:23;23.90;99.90
7598;DHT22;3840;59.32098800;18.06423600;2023-08-07T12:28:48;24.10;99.90
7598;DHT22;3840;59.32098800;18.06423600;2023-08-07T12:31:15;24.20;99.90
7598;DHT22;3840;59.32098800;18.06423600;2023-08-07T12:33:42;24.20;99.90
7598;DHT22;3840;59.32098800;18.06423600;2023-08-07T12:36:09;24.20;99.90
7598;DHT22;3840;59.32098800;18.06423600;2023-08-07T12:38:36;24.30;99.90
7598;DHT22;3840;59.32098800;18.06423600;2023-08-07T12:41:02;24.30;99.90
7598;DHT22;3840;59.32098800;18.06423600;2023-08-07T12:43:30;24.30;99.90
7598;DHT22;3840;59.32098800;18.06423600;2023-08-07T12:45:55;24.40;99.90
7598;DHT22;3840;59.32098800;18.06423600;2023-08-07T12:48:21;24.30;99.90
7598;DHT22;3840;59.32098800;18.06423600;2023-08-07T12:50:47;24.30;99.90
7598;DHT22;3840;59.32098800;18.06423600;2023-08-07T12:53:13;24.40;99.90
7598;DHT22;3840;59.32098800;18.06423600;2023-08-07T12:55:39;24.30;99.90
7598;DHT22;3840;59.32098800;18.06423600;2023-08-07T12:58:05;24.30;99.90
7598;DHT22;3840;59.32098800;18.06423600;2023-08-07T13:00:31;24.30;99.90
7598;DHT22;3840;59.32098800;18.06423600;2023-08-07T13:02:57;24.30;99.90
7598;DHT22;3840;59.32098800;18.06423600;2023-08-07T13:05:24;24.10;99.90
7598;DHT22;3840;59.32098800;18.06423600;2023-08-07T13:07:50;24.10;99.90
7598;DHT22;3840;59.32098800;18.06423600;2023-08-07T13:10:19;24.10;99.90
7598;DHT22;3840;59.32098800;18.06423600;2023-08-07T13:12:47;24.10;99.90
7598;DHT22;3840;59.32098800;18.06423600;2023-08-07T13:15:14;24.10;99.90
7598;DHT22;3840;59.32098800;18.06423600;2023-08-07T13:17:41;24.10;99.90
7598;DHT22;3840;59.32098800;18.06423600;2023-08-07T13:20:08;24.30;99.90
7598;DHT22;3840;59.32098800;18.06423600;2023-08-07T13:22:39;24.30;99.90
7598;DHT22;3840;59.32098800;18.06423600;2023-08-07T13:25:06;24.20;99.90
7598;DHT22;3840;59.32098800;18.06423600;2023-08-07T13:27:33;24.00;99.90
7598;DHT22;3840;59.32098800;18.06423600;2023-08-07T13:29:59;24.00;99.90
7598;DHT22;3840;59.32098800;18.06423600;2023-08-07T13:32:26;23.90;99.90
7598;DHT22;3840;59.32098800;18.06423600;2023-08-07T13:34:52;23.90;99.90
7598;DHT22;3840;59.32098800;18.06423600;2023-08-07T13:37:18;24.00;99.90
7598;DHT22;3840;59.32098800;18.06423600;2023-08-07T13:39:43;24.10;99.90
7598;DHT22;3840;59.32098800;18.06423600;2023-08-07T13:42:09;24.00;99.90